createdAt,value
2019-03-09T00:02:08.341Z,98.50
2019-03-09T00:04:39.122Z,98.20
2019-03-09T00:07:09.821Z,98.30
2019-03-09T00:09:40.611Z,98.30
2019-03-09T00:12:12.974Z,98.40
2019-03-09T00:14:43.775Z,98.40
2019-03-09T00:17:14.661Z,98.80
2019-03-09T00:19:45.422Z,98.70
2019-03-09T00:22:16.342Z,98.70
2019-03-09T00:24:54.813Z,98.70
2019-03-09T00:27:47.563Z,98.50
2019-03-09T00:30:32.814Z,98.70
2019-03-09T00:33:03.558Z,99.00
2019-03-09T00:35:34.434Z,99.20
2019-03-09T00:38:05.651Z,99.20
2019-03-09T00:40:36.415Z,99.30
2019-03-09T00:43:07.594Z,99.30
2019-03-09T00:45:38.307Z,99.30
2019-03-09T00:48:09.085Z,99.50
2019-03-09T00:50:39.906Z,99.50
2019-03-09T00:53:10.630Z,99.90
2019-03-09T00:55:41.475Z,99.80
2019-03-09T00:58:12.490Z,99.70
2019-03-09T01:00:43.318Z,99.90
2019-03-09T01:03:15.042Z,99.90
2019-03-09T01:05:45.982Z,99.90
2019-03-09T01:08:17.646Z,99.90
2019-03-09T01:10:48.525Z,99.90
2019-03-09T01:13:19.218Z,99.90
2019-03-09T01:15:49.926Z,99.90
2019-03-09T01:18:20.619Z,99.90
2019-03-09T01:20:51.390Z,99.90
2019-03-09T01:23:22.066Z,99.90
2019-03-09T01:25:52.878Z,99.90
2019-03-09T01:28:23.663Z,99.90
2019-03-09T01:30:54.447Z,99.90
2019-03-09T01:33:25.192Z,99.90
2019-03-09T01:35:55.953Z,99.90
2019-03-09T01:38:26.747Z,99.90
2019-03-09T01:40:57.555Z,99.90
2019-03-09T01:43:28.339Z,99.90
2019-03-09T01:45:59.070Z,99.90
2019-03-09T01:48:29.991Z,99.90
2019-03-09T02:10:05.411Z,99.90
2019-03-09T02:12:36.188Z,99.90
2019-03-09T02:15:07.417Z,99.90
2019-03-09T02:17:38.269Z,99.90
2019-03-09T02:20:09.719Z,99.90
2019-03-09T02:22:40.526Z,99.90
2019-03-09T02:25:11.256Z,99.90
2019-03-09T02:27:42.072Z,99.90
2019-03-09T02:30:13.056Z,99.90
2019-03-09T02:32:44.006Z,99.90
2019-03-09T02:35:15.172Z,99.90
2019-03-09T02:37:46.020Z,99.90
2019-03-09T02:40:23.197Z,99.90
2019-03-09T02:42:55.215Z,99.90
2019-03-09T02:45:26.615Z,99.90
2019-03-09T02:47:57.497Z,99.90
2019-03-09T02:50:28.355Z,99.90
2019-03-09T02:52:59.123Z,99.90
2019-03-09T02:55:29.931Z,99.90
2019-03-09T02:58:00.737Z,99.90
2019-03-09T03:00:36.803Z,99.90
2019-03-09T03:03:07.637Z,99.90
2019-03-09T03:05:38.392Z,99.90
2019-03-09T03:08:09.068Z,99.90
2019-03-09T03:10:39.880Z,99.90
2019-03-09T03:13:10.671Z,99.90
2019-03-09T03:15:41.511Z,99.90
2019-03-09T03:18:12.219Z,99.90
2019-03-09T03:20:42.987Z,99.90
2019-03-09T03:23:13.686Z,99.90
2019-03-09T03:25:44.471Z,99.90
2019-03-09T03:28:15.256Z,99.90
2019-03-09T03:30:46.054Z,99.90
2019-03-09T03:33:16.934Z,99.90
2019-03-09T03:35:47.777Z,99.90
2019-03-09T03:38:18.547Z,99.90
2019-03-09T03:40:49.381Z,99.90
2019-03-09T03:43:20.129Z,99.90
2019-03-09T03:45:50.915Z,99.90
2019-03-09T03:48:21.593Z,99.80
2019-03-09T03:50:52.407Z,99.50
2019-03-09T03:53:23.096Z,99.50
2019-03-09T03:55:53.833Z,99.30
2019-03-09T03:58:24.596Z,99.30
2019-03-09T04:00:55.408Z,99.20
2019-03-09T04:03:26.246Z,99.20
2019-03-09T04:05:57.045Z,99.20
2019-03-09T04:08:27.809Z,99.10
2019-03-09T04:10:58.609Z,99.10
2019-03-09T04:13:29.308Z,98.60
2019-03-09T04:16:00.035Z,98.20
2019-03-09T04:18:30.766Z,98.20
2019-03-09T04:21:02.107Z,98.20
2019-03-09T04:23:32.919Z,98.00
2019-03-09T04:26:04.629Z,98.10
2019-03-09T04:28:35.338Z,98.00
2019-03-09T04:31:06.224Z,98.10
2019-03-09T04:33:36.995Z,97.90
2019-03-09T04:36:07.704Z,97.70
2019-03-09T04:38:38.421Z,97.50
2019-03-09T04:41:09.138Z,97.20
2019-03-09T04:43:40.839Z,97.30
2019-03-09T04:46:11.598Z,97.40
2019-03-09T04:48:42.263Z,97.50
2019-03-09T04:51:12.977Z,97.40
2019-03-09T04:53:43.691Z,97.30
2019-03-09T04:56:14.465Z,97.40
2019-03-09T04:58:45.177Z,97.00
2019-03-09T05:01:15.923Z,97.10
2019-03-09T05:03:55.283Z,97.00
2019-03-09T05:06:26.009Z,96.60
2019-03-09T05:09:23.002Z,96.60
2019-03-09T05:11:53.724Z,95.60
2019-03-09T05:14:25.791Z,96.10
2019-03-09T05:16:56.562Z,95.90
2019-03-09T05:19:27.296Z,96.00
2019-03-09T05:21:58.030Z,96.00
2019-03-09T05:24:28.708Z,95.90
2019-03-09T05:26:59.445Z,95.90
2019-03-09T05:29:30.190Z,96.00
2019-03-09T05:32:00.950Z,95.80
2019-03-09T05:34:31.685Z,95.70
2019-03-09T05:37:02.440Z,95.50
2019-03-09T05:39:33.156Z,95.20
2019-03-09T05:42:03.882Z,95.00
2019-03-09T05:44:34.570Z,95.10
2019-03-09T05:47:05.315Z,95.20
2019-03-09T05:49:36.058Z,95.30
2019-03-09T05:52:28.912Z,95.30
2019-03-09T05:55:04.071Z,95.00
2019-03-09T05:57:36.258Z,95.20
2019-03-09T06:00:07.198Z,95.20
2019-03-09T06:02:37.950Z,94.80
2019-03-09T06:05:46.074Z,94.80
2019-03-09T06:08:16.807Z,94.80
2019-03-09T06:10:47.502Z,94.60
2019-03-09T06:13:18.161Z,94.80
2019-03-09T06:15:48.907Z,94.90
2019-03-09T06:18:21.198Z,95.10
2019-03-09T06:20:51.930Z,95.30
2019-03-09T06:23:22.722Z,95.30
2019-03-09T06:25:53.416Z,95.30
2019-03-09T06:28:24.142Z,95.40
2019-03-09T06:30:54.796Z,95.40
2019-03-09T06:33:29.898Z,95.20
2019-03-09T06:36:34.055Z,95.20
2019-03-09T06:39:18.551Z,95.20
2019-03-09T06:42:39.152Z,95.30
2019-03-09T06:45:12.207Z,95.40
2019-03-09T06:47:42.917Z,95.50
2019-03-09T06:50:15.866Z,95.60
2019-03-09T06:52:46.670Z,95.60
2019-03-09T06:55:17.522Z,95.70
2019-03-09T06:57:48.169Z,95.70
2019-03-09T07:00:47.206Z,95.60
2019-03-09T07:03:17.947Z,95.60
2019-03-09T07:05:48.765Z,95.80
2019-03-09T07:08:19.616Z,95.90
2019-03-09T07:10:50.502Z,96.00
2019-03-09T07:13:21.295Z,96.00
2019-03-09T07:15:52.154Z,96.00
2019-03-09T07:18:29.186Z,96.20
2019-03-09T07:20:59.965Z,96.40
2019-03-09T07:23:30.731Z,96.40
2019-03-09T07:26:01.626Z,96.30
2019-03-09T07:28:32.445Z,96.20
2019-03-09T07:31:03.229Z,95.80
2019-03-09T07:33:33.983Z,95.90
2019-03-09T07:36:04.980Z,96.00
2019-03-09T07:38:36.762Z,95.80
2019-03-09T07:41:07.499Z,95.60
2019-03-09T07:43:38.332Z,95.30
2019-03-09T07:46:09.347Z,95.30
2019-03-09T07:48:40.927Z,94.70
2019-03-09T07:51:12.840Z,94.90
2019-03-09T07:53:43.597Z,94.50
2019-03-09T07:56:14.456Z,94.60
2019-03-09T07:58:45.190Z,94.40
2019-03-09T08:01:15.847Z,94.50
2019-03-09T08:03:48.024Z,94.50
2019-03-09T08:06:19.305Z,94.60
2019-03-09T08:08:50.050Z,94.20
2019-03-09T08:11:20.829Z,93.90
2019-03-09T08:13:51.700Z,94.00
2019-03-09T08:16:25.415Z,93.70
2019-03-09T08:18:56.185Z,93.90
2019-03-09T08:21:26.928Z,93.30
2019-03-09T08:23:57.723Z,93.20
2019-03-09T08:26:28.518Z,93.20
2019-03-09T08:28:59.634Z,93.10
2019-03-09T08:31:31.724Z,92.70
2019-03-09T08:34:02.460Z,92.70
2019-03-09T08:36:35.004Z,92.70
2019-03-09T08:39:07.150Z,92.70
2019-03-09T08:41:38.025Z,92.90
2019-03-09T08:44:09.859Z,92.40
2019-03-09T08:46:40.762Z,92.70
2019-03-09T08:49:11.614Z,92.90
2019-03-09T08:51:42.470Z,92.90
2019-03-09T08:54:13.253Z,92.90
2019-03-09T08:56:44.170Z,93.00
2019-03-09T08:59:16.170Z,93.10
2019-03-09T09:01:47.042Z,93.20
2019-03-09T09:04:17.917Z,93.50
2019-03-09T09:06:48.667Z,93.70
2019-03-09T09:09:19.417Z,93.70
2019-03-09T09:11:50.240Z,94.00
2019-03-09T09:14:21.802Z,93.80
2019-03-09T09:16:52.582Z,93.80
2019-03-09T09:19:23.225Z,93.70
2019-03-09T09:21:54.616Z,93.30
2019-03-09T09:24:25.324Z,93.20
2019-03-09T09:26:56.041Z,93.30
2019-03-09T09:29:26.866Z,93.40
2019-03-09T09:31:57.648Z,93.00
2019-03-09T09:34:28.386Z,93.10
2019-03-09T09:36:59.195Z,92.90
2019-03-09T09:39:30.211Z,92.60
2019-03-09T09:42:01.469Z,92.50
2019-03-09T09:44:32.166Z,91.80
2019-03-09T09:47:02.895Z,91.80
2019-03-09T09:49:33.576Z,91.20
2019-03-09T09:52:04.259Z,91.40
2019-03-09T09:54:34.995Z,91.10
2019-03-09T09:57:06.119Z,91.20
2019-03-09T09:59:36.867Z,91.10
2019-03-09T10:02:09.178Z,91.30
2019-03-09T10:04:39.925Z,91.30
2019-03-09T10:07:10.659Z,90.90
2019-03-09T10:09:41.402Z,91.30
2019-03-09T10:12:12.075Z,91.60
2019-03-09T10:14:42.893Z,91.60
2019-03-09T10:17:13.619Z,91.60
2019-03-09T10:19:44.474Z,90.80
2019-03-09T10:22:15.465Z,90.90
2019-03-09T10:24:46.184Z,91.30
2019-03-09T10:27:16.939Z,91.70
2019-03-09T10:29:47.737Z,91.60
2019-03-09T10:32:18.386Z,91.50
2019-03-09T10:34:49.074Z,91.30
2019-03-09T10:37:19.835Z,91.30
2019-03-09T10:39:50.631Z,90.60
2019-03-09T10:42:21.452Z,90.70
2019-03-09T11:30:41.674Z,87.30
2019-03-09T11:41:18.842Z,89.50
2019-03-09T11:44:06.011Z,89.70
2019-03-09T11:46:37.607Z,90.60
2019-03-09T11:49:08.435Z,90.50
2019-03-09T11:51:39.219Z,90.50
2019-03-09T11:54:11.172Z,89.80
2019-03-09T11:56:46.534Z,90.20
2019-03-09T11:59:17.307Z,90.40
2019-03-09T12:01:48.209Z,90.60
2019-03-09T12:04:18.978Z,90.40
2019-03-09T12:06:49.788Z,90.20
2019-03-09T12:09:20.525Z,89.80
2019-03-09T12:12:01.351Z,90.40
2019-03-09T12:14:33.227Z,90.10
2019-03-09T12:17:04.168Z,90.20
2019-03-09T12:19:36.614Z,90.50
2019-03-09T12:22:07.442Z,90.10
2019-03-09T12:24:38.387Z,90.50
2019-03-09T12:27:10.710Z,90.40
2019-03-09T12:29:41.529Z,90.30
2019-03-09T12:32:12.330Z,90.20
2019-03-09T12:34:44.708Z,90.10
2019-03-09T12:37:15.530Z,90.00
2019-03-09T12:39:46.280Z,89.60
2019-03-09T12:42:16.993Z,88.70
2019-03-09T12:44:47.774Z,88.60
2019-03-09T12:47:19.136Z,87.90
2019-03-09T12:49:51.325Z,87.20
2019-03-09T12:52:23.436Z,86.40
2019-03-09T12:54:54.289Z,85.70
2019-03-09T12:57:25.566Z,85.10
2019-03-09T12:59:56.306Z,84.30
2019-03-09T13:02:27.140Z,84.90
2019-03-09T13:04:57.839Z,85.40
2019-03-09T13:07:29.110Z,86.20
2019-03-09T13:09:59.842Z,86.30
2019-03-09T13:12:30.594Z,86.30
2019-03-09T13:15:01.538Z,86.40
2019-03-09T13:17:32.415Z,86.00
2019-03-09T13:20:03.299Z,85.70
2019-03-09T13:22:34.133Z,84.60
2019-03-09T13:25:05.435Z,84.80
2019-03-09T13:27:37.907Z,85.10
2019-03-09T13:30:11.942Z,85.90
2019-03-09T13:32:42.719Z,86.20
2019-03-09T13:35:15.046Z,86.20
2019-03-09T13:37:46.027Z,88.80
2019-03-09T13:40:16.918Z,89.60
2019-03-09T13:42:47.634Z,90.80
2019-03-09T13:45:18.514Z,92.20
2019-03-09T13:47:49.289Z,92.50
2019-03-09T13:50:20.057Z,92.10
2019-03-09T13:52:50.821Z,92.10
2019-03-09T13:55:21.792Z,92.40
2019-03-09T13:57:52.670Z,92.10
2019-03-09T14:00:23.406Z,91.70
2019-03-09T14:02:54.155Z,92.10
2019-03-09T14:05:26.474Z,91.50
2019-03-09T14:08:00.324Z,92.20
2019-03-09T14:10:31.021Z,92.40
2019-03-09T14:13:01.782Z,93.80
2019-03-09T14:15:32.588Z,95.10
2019-03-09T14:18:03.305Z,96.20
2019-03-09T14:20:34.151Z,96.60
2019-03-09T14:23:38.124Z,96.80
2019-03-09T14:26:08.945Z,96.00
2019-03-09T14:28:39.627Z,96.20
2019-03-09T14:31:10.604Z,94.80
2019-03-09T14:33:43.770Z,94.40
2019-03-09T14:36:14.513Z,94.30
2019-03-09T14:38:45.265Z,94.40
2019-03-09T14:41:16.061Z,94.40
2019-03-09T14:43:47.911Z,95.00
2019-03-09T14:47:45.304Z,94.70
2019-03-09T14:58:22.089Z,90.80
2019-03-09T15:00:53.008Z,81.80
2019-03-09T15:03:23.799Z,80.40
2019-03-09T15:05:54.590Z,80.00
2019-03-09T15:08:25.414Z,83.20
2019-03-09T15:10:56.361Z,85.50
2019-03-09T15:13:29.409Z,87.30
2019-03-09T15:16:00.184Z,79.30
2019-03-09T15:18:31.035Z,70.50
2019-03-09T15:21:02.063Z,66.90
2019-03-09T15:23:33.156Z,66.30
2019-03-09T15:26:04.002Z,65.90
2019-03-09T15:28:34.809Z,62.90
2019-03-09T15:31:07.140Z,61.70
2019-03-09T15:33:37.906Z,57.90
2019-03-09T15:36:08.627Z,58.10
2019-03-09T15:38:39.404Z,59.20
2019-03-09T15:41:10.257Z,61.50
2019-03-09T15:43:41.070Z,61.20
2019-03-09T15:46:13.084Z,60.70
2019-03-09T15:48:43.976Z,60.20
2019-03-09T15:51:14.866Z,60.00
2019-03-09T15:53:45.824Z,62.00
2019-03-09T15:56:16.865Z,59.50
2019-03-09T15:59:23.186Z,59.00
2019-03-09T16:01:50.584Z,61.40
2019-03-09T16:04:22.732Z,68.30
2019-03-09T16:06:55.468Z,71.30
2019-03-09T16:09:26.337Z,74.50
2019-03-09T16:11:57.275Z,77.20
2019-03-09T16:14:31.320Z,77.50
2019-03-09T16:17:11.232Z,79.10
2019-03-09T16:19:42.243Z,80.50
2019-03-09T16:22:13.320Z,80.60
2019-03-09T16:24:44.299Z,81.30
2019-03-09T16:27:17.166Z,82.30
2019-03-09T16:29:52.780Z,81.70
2019-03-09T16:32:24.166Z,82.80
2019-03-09T16:34:55.327Z,82.40
2019-03-09T16:37:26.455Z,83.50
2019-03-09T16:39:57.201Z,83.30
2019-03-09T16:42:27.907Z,82.90
2019-03-09T16:45:05.683Z,83.60
2019-03-09T16:47:37.032Z,84.10
2019-03-09T16:50:08.808Z,84.80
2019-03-09T16:52:39.668Z,84.40
2019-03-09T16:55:11.111Z,85.70
2019-03-09T16:57:41.956Z,86.00
2019-03-09T17:00:15.507Z,86.00
2019-03-09T17:02:47.557Z,86.80
2019-03-09T17:05:18.209Z,86.90
2019-03-09T17:07:48.991Z,87.00
2019-03-09T17:10:19.870Z,86.60
2019-03-09T17:12:50.626Z,87.20
2019-03-09T17:15:21.426Z,86.80
2019-03-09T17:17:52.930Z,87.10
2019-03-09T17:20:23.705Z,88.00
2019-03-09T17:22:56.037Z,88.30
2019-03-09T17:25:26.686Z,88.50
2019-03-09T17:27:57.993Z,88.60
2019-03-09T17:30:30.004Z,89.20
2019-03-09T17:33:00.835Z,89.10
2019-03-09T17:35:34.342Z,88.80
2019-03-09T17:38:05.056Z,89.30
2019-03-09T17:40:36.055Z,89.90
2019-03-09T17:43:06.861Z,89.80
2019-03-09T17:45:37.653Z,90.10
2019-03-09T17:48:08.330Z,90.30
2019-03-09T17:50:39.178Z,90.40
2019-03-09T17:53:09.850Z,90.50
2019-03-09T17:55:40.535Z,90.60
2019-03-09T17:58:11.203Z,90.90
2019-03-09T18:00:45.133Z,91.00
2019-03-09T18:03:15.999Z,91.00
2019-03-09T18:05:46.977Z,91.20
2019-03-09T18:08:17.785Z,91.40
2019-03-09T18:10:51.624Z,91.40
2019-03-09T18:13:22.712Z,91.60
2019-03-09T18:15:53.441Z,91.80
2019-03-09T18:18:24.339Z,92.10
2019-03-09T18:20:56.262Z,91.90
2019-03-09T18:23:26.989Z,91.70
2019-03-09T18:25:57.763Z,91.90
2019-03-09T18:28:31.335Z,91.90
2019-03-09T18:31:01.489Z,92.00
2019-03-09T18:33:32.545Z,92.00
2019-03-09T18:36:05.209Z,91.90
2019-03-09T18:38:37.607Z,91.80
2019-03-09T18:41:08.463Z,91.90
2019-03-09T18:43:39.226Z,91.90
2019-03-09T18:46:21.935Z,91.90
2019-03-09T18:48:52.715Z,91.70
2019-03-09T18:51:23.946Z,91.90
2019-03-09T18:53:54.897Z,91.90
2019-03-09T18:56:27.251Z,91.90
2019-03-09T18:58:58.275Z,92.10
2019-03-09T19:01:29.096Z,92.30
2019-03-09T19:04:01.430Z,92.50
2019-03-09T19:06:34.536Z,92.60
2019-03-09T19:09:08.966Z,92.70
2019-03-09T19:11:40.343Z,92.90
2019-03-09T19:14:11.321Z,93.00
2019-03-09T19:16:42.310Z,92.90
2019-03-09T19:19:14.254Z,93.00
2019-03-09T19:21:52.568Z,93.00
2019-03-09T19:24:23.466Z,92.90
2019-03-09T19:26:54.284Z,92.70
2019-03-09T19:29:27.525Z,92.50
2019-03-09T19:31:58.366Z,92.60
2019-03-09T19:34:29.198Z,92.70
2019-03-09T19:37:03.545Z,92.60
2019-03-09T19:39:34.101Z,92.40
2019-03-09T19:42:04.981Z,92.30
2019-03-09T19:44:36.063Z,92.30
2019-03-09T19:47:09.422Z,92.00
2019-03-09T19:49:41.839Z,92.00
2019-03-09T19:52:14.339Z,91.10
2019-03-09T19:54:48.118Z,91.00
2019-03-09T19:57:21.428Z,90.60
2019-03-09T19:59:53.887Z,90.30
2019-03-09T20:02:34.815Z,90.00
2019-03-09T20:05:08.169Z,90.00
2019-03-09T20:07:39.033Z,89.60
2019-03-09T20:10:11.138Z,90.00
2019-03-09T20:12:41.981Z,89.60
2019-03-09T20:15:13.997Z,89.90
2019-03-09T20:17:46.351Z,90.00
2019-03-09T20:20:17.180Z,90.00
2019-03-09T20:22:48.138Z,89.80
2019-03-09T20:25:19.088Z,89.80
2019-03-09T20:27:53.751Z,90.00
2019-03-09T20:30:36.117Z,90.00
2019-03-09T20:32:59.365Z,89.90
2019-03-09T20:35:37.767Z,89.90
2019-03-09T20:38:30.626Z,89.60
2019-03-09T20:41:03.128Z,89.60
2019-03-09T20:43:33.982Z,89.30
2019-03-09T20:46:04.783Z,88.50
2019-03-09T20:48:35.587Z,88.10
2019-03-09T20:51:07.924Z,88.80
2019-03-09T20:53:38.857Z,87.90
2019-03-09T20:56:09.621Z,87.00
2019-03-09T20:58:40.367Z,86.80
2019-03-09T21:01:11.182Z,87.30
2019-03-09T21:03:42.136Z,86.20
2019-03-09T21:06:13.041Z,86.20
2019-03-09T21:08:45.071Z,85.10
2019-03-09T21:11:16.122Z,85.50
2019-03-09T21:13:46.906Z,85.30
2019-03-09T21:16:17.875Z,84.50
2019-03-09T21:18:48.735Z,84.00
2019-03-09T21:21:19.555Z,84.00
2019-03-09T21:23:50.359Z,83.90
2019-03-09T21:26:21.407Z,83.40
2019-03-09T21:28:52.243Z,83.40
2019-03-09T21:31:34.232Z,83.50
2019-03-09T21:34:06.112Z,83.10
2019-03-09T21:36:36.955Z,83.60
2019-03-09T21:39:08.384Z,84.20
2019-03-09T21:41:41.072Z,84.90
2019-03-09T21:44:11.883Z,85.40
2019-03-09T21:46:42.699Z,85.60
2019-03-09T21:49:13.382Z,86.00
2019-03-09T21:51:44.285Z,86.10
2019-03-09T21:54:15.134Z,86.00
2019-03-09T21:56:45.974Z,86.10
2019-03-09T21:59:16.782Z,85.90
2019-03-09T22:01:47.480Z,86.00
2019-03-09T22:04:18.260Z,86.10
2019-03-09T22:06:48.994Z,86.10
2019-03-09T22:09:19.764Z,85.80
2019-03-09T22:11:50.560Z,85.80
2019-03-09T22:14:21.300Z,86.30
2019-03-09T22:16:56.600Z,86.60
2019-03-09T22:19:25.269Z,87.30
2019-03-09T22:21:56.092Z,87.60
2019-03-09T22:24:27.134Z,87.60
2019-03-09T22:26:57.863Z,87.70
2019-03-09T22:29:28.692Z,87.90
2019-03-09T22:31:59.390Z,88.00
2019-03-09T22:34:30.191Z,87.90
2019-03-09T22:37:00.960Z,88.00
2019-03-09T22:39:31.755Z,88.10
2019-03-09T22:42:02.466Z,88.40
2019-03-09T22:44:34.844Z,88.10
2019-03-09T22:47:11.582Z,87.90
2019-03-09T22:49:38.516Z,88.20
2019-03-09T22:52:10.164Z,88.20
2019-03-09T22:54:40.834Z,88.00
2019-03-09T22:57:11.537Z,88.00
2019-03-09T22:59:42.363Z,88.50
2019-03-09T23:02:13.100Z,88.50
2019-03-09T23:04:43.874Z,88.50
2019-03-09T23:07:14.627Z,88.50
2019-03-09T23:09:46.506Z,88.80
2019-03-09T23:12:17.331Z,88.60
2019-03-09T23:14:48.570Z,88.20
2019-03-09T23:17:19.373Z,88.20
2019-03-09T23:19:50.231Z,88.20
2019-03-09T23:22:20.990Z,88.00
2019-03-09T23:24:51.779Z,88.30
2019-03-09T23:27:24.130Z,88.20
2019-03-09T23:29:54.917Z,88.00
2019-03-09T23:32:25.675Z,88.10
2019-03-09T23:34:56.442Z,88.70
2019-03-09T23:37:27.256Z,88.00
2019-03-09T23:39:57.991Z,88.10
2019-03-09T23:42:28.713Z,88.00
2019-03-09T23:44:59.463Z,88.20
2019-03-09T23:47:30.252Z,88.20
2019-03-09T23:50:01.038Z,88.70
2019-03-09T23:52:31.688Z,88.90
2019-03-09T23:55:03.534Z,89.60
2019-03-09T23:57:34.371Z,89.40
